Terminal Aerodrome Forecast
Issued by NWS Missoula, MT

Home | Current Version | Previous Version | Text Only | Print | Product List | Glossary On
Versions: 1 2 3 4 5 6 7 8 9 10 11 12 13 14 15
000
FTUS45 KMSO 221121
TAFMSO
TAF
KMSO 221121Z 2212/2312 00000KT 1SM BR SCT003
      TEMPO 2212/2213 3/4SM BR BKN003
     FM221300 00000KT 1/2SM FG VV002
     FM221530 VRB04KT P6SM SCT080 SCT120=

USA.gov is the U.S. government's official web portal to all federal, state and local government web resources and services.